Terminal Aerodrome Forecast
Issued by NWS

Home | Current Version | Previous Version | Text Only | Print | Product List | Glossary On
Versions: 1 2 3 4 5 6 7 8 9 10 11 12 13
240
FTUS46 KMFR 202344
TAFLMT
TAF
KLMT 202344Z 2100/2124 30012G20KT P6SM SKC
     FM210400 VRB03KT P6SM SKC
     FM212300 32007KT P6SM FEW080=

USA.gov is the U.S. government's official web portal to all federal, state and local government web resources and services.